Ana Sayfa
METAR-TAF:

METAR-TAF

Havaalanları :

Amman, Ürdün

Enlem: 31-59N, Boylam: 035-59E, yükseklik: 767 m

Güncel hava durumu gözlemi

Rapor saat 16:00 UTC de 29 dakika önce yapıldı.
Rüzgar kuzeybatıdan 12 kt
Sıcaklık 30°C
Nem 49%
Basınç 1012 hPa
Görüş mesafesi: 4000 m
Toz Pusu

METAR: OJAM 241600Z 32012KT 4000 HZ NSC 30/18 Q1012 NOSIG

Saat: 19:29 (16:29 UTC)

Tahmin

Rapor saat 11:00 UTC de 5 saat ve 29 dakika önce yapıldı.
Ayın 24'si saat 12 UTC'den ayın 25'si saat 18 UTC'ye kadar geçerli Tahmin
Rüzgar batı/kuzeybatıdan 8 kt
Görüş mesafesi: 6000 m
Geçici
ayın 24'si saat 12 UTC'den ayın 24'si saat 18 UTC'ye kadar
Görüş mesafesi: 5000 m
Toz Pusu

TAF: OJAM 241100Z 2412/2518 29008KT 6000 NSC TEMPO 2412/2418 5000 HZ

4.000'den fazla havaalanı için hava durumu gözlemleri ve tahminleri (METAR ve TAF raporları).

Kullanılabilir istasyonlar harita üzerinde sarı ve kırmızı noktalarla gösterilir.

İstasyonun adını görmek için fareyi noktanın üzerinde gezdirin.

Sonrasında hava gözlem ve tahminlerini görmek için tıklayın.

Haritayı değiştirmek için: yaklaştırmak için siyah artı işaretli yeşil düğmeye ve uzaklaştırmak için de eksi işaretli düğmeye hızla tıklayın; bitişik haritalar için yeşil okları kullanın.


METAR-TAF: